• Join FlightAware (Why Join?)
  • Login
  • US Flag 
07:48PM EDT


 

Airport Tracker/Info


-or-


 

Live Flight TrackerFlight Track Log ✈ JZA8753 ✈ 14-Jun-2013 ✈ CYUL - CYVO

Flight Track Log - Related Links

Times and Time Zones

All times are in EDT time to prevent confusion due to time zone crossing. See the JZA8753 flight status page for this flight to view local times or setup timezone preferences in your user account.

Time Position Orientation Groundspeed Altitude Reporting Facility
EDT Latitude Longitude Course Direction KTS MPH feet Rate Location/Type
07:29PM 45.4500 -73.7500 295° West 10 12 100  Level Montreal Center
07:30PM 45.4500 -73.7500 295° West 50 58 100 600 Level Montreal Center
07:31PM 45.4833 -73.7167 35° Northeast 110 127 1,400 1,200 Climbing Montreal Center
07:32PM 45.5167 -73.7500 325° Northwest 140 161 2,600 1,200 Climbing Montreal Center
07:33PM 45.5333 -73.7833 306° West 150 173 3,800 1,020 Climbing Montreal Center
07:34PM 45.5500 -73.8667 286° West 180 207 4,700 840 Climbing Montreal Center
07:35PM 45.6039 -74.1451 295° West  Level FlightAware Approximate
07:35PM 45.5667 -73.9333 290° West 200 230 5,500  Level Montreal Center
07:36PM 45.5833 -74.0333 283° West 210 242 6,300 900 Climbing Montreal Center
07:37PM 45.6000 -74.1000 290° West 210 242 7,300 960 Climbing Montreal Center
07:38PM 45.6333 -74.1667 306° West 200 230 8,300 900 Climbing Montreal Center
07:39PM 45.6500 -74.2500 286° West 200 230 9,100 780 Climbing Montreal Center
07:40PM 45.7000 -74.3167 317° Northwest 200 230 9,900 840 Climbing Montreal Center
07:41PM 45.7167 -74.3667 296° West 210 242 10,800 960 Climbing Montreal Center
07:42PM 45.7500 -74.4333 306° West 210 242 11,900 960 Climbing Montreal Center
07:43PM 45.7833 -74.5000 306° West 200 230 12,800 780 Climbing Montreal Center
07:44PM 45.8167 -74.5667 306° West 200 230 13,500 600 Climbing Montreal Center
07:45PM 45.8333 -74.6500 286° West 210 242 14,000 240 Climbing Montreal Center
07:46PM 45.8500 -74.7333 286° West 230 265 14,000  Level Montreal Center
07:47PM 45.8667 -74.8333 283° West 240 276 14,000  Level Montreal Center
07:48PM 45.8833 -74.9333 283° West 240 276 14,000  Level Montreal Center
07:49PM 45.9000 -75.0000 290° West 230 265 14,000  Level Montreal Center
07:50PM 45.9500 -75.0833 311° West 230 265 14,000  Level Montreal Center
07:51PM 46.0167 -75.1167 341° North 230 265 14,000  Level Montreal Center
07:52PM 46.0667 -75.2000 311° West 230 265 14,000  Level Montreal Center
07:53PM 46.1167 -75.2500 325° Northwest 230 265 14,000  Level Montreal Center
07:54PM 46.1667 -75.3167 317° Northwest 230 265 14,000  Level Montreal Center
07:55PM 46.2000 -75.3667 314° West 230 265 14,100  Climbing Montreal Center
07:56PM 46.2500 -75.4333 317° Northwest 230 265 14,100  Level Montreal Center
07:57PM 46.3000 -75.5000 317° Northwest 230 265 14,100  Level Montreal Center
07:58PM 46.3500 -75.5500 325° Northwest 230 265 14,100  Level Montreal Center
07:59PM 46.4000 -75.6333 311° West 230 265 14,100 -60 Level Montreal Center
08:00PM 46.4500 -75.6833 325° Northwest 230 265 14,000 -60 Descending Montreal Center
08:01PM 46.5000 -75.7500 317° Northwest 230 265 14,000  Level Montreal Center
08:02PM 46.5333 -75.8000 314° West 230 265 14,100  Climbing Montreal Center
08:03PM 46.5833 -75.8667 318° Northwest 230 265 14,000 -60 Descending Montreal Center
08:04PM 46.6333 -75.9167 326° Northwest 230 265 14,000  Level Montreal Center
08:05PM 46.6833 -76.0000 311° West 230 265 14,000  Level Montreal Center
08:06PM 46.7333 -76.0333 335° Northwest 230 265 14,000  Level Montreal Center
08:07PM 46.7833 -76.1167 311° West 230 265 14,000  Level Montreal Center
08:08PM 46.8333 -76.1667 326° Northwest 230 265 14,000  Level Montreal Center
08:09PM 46.8833 -76.2333 318° Northwest 230 265 14,000  Level Montreal Center
08:10PM 46.9167 -76.2833 314° West 230 265 14,000  Level Montreal Center
08:11PM 46.9667 -76.3667 311° West 230 265 14,000  Level Montreal Center
08:12PM 47.0167 -76.4167 326° Northwest 230 265 14,000  Level Montreal Center
08:13PM 47.0667 -76.4833 318° Northwest 230 265 14,000  Level Montreal Center
08:14PM 47.1167 -76.5333 326° Northwest 230 265 14,000  Level Montreal Center
08:15PM 47.1667 -76.5833 326° Northwest 230 265 14,000  Level Montreal Center
08:16PM 47.2167 -76.6667 311° West 230 265 14,000  Level Montreal Center
08:17PM 47.2667 -76.7167 326° Northwest 230 265 14,000  Level Montreal Center
08:18PM 47.3167 -76.7833 318° Northwest 230 265 14,000 -60 Level Montreal Center
08:19PM 47.3667 -76.8333 326° Northwest 230 265 13,900 -540 Descending Montreal Center
08:20PM 47.4167 -76.9167 312° West 240 276 13,000 -900 Descending Montreal Center
08:21PM 47.4833 -76.9667 333° Northwest 250 288 12,200 -840 Descending Montreal Center
08:23PM 47.5847 -77.1099 324° Northwest  Level Estimated
08:30PM 47.9662 -77.6161 326° Northwest  Level FlightAware Approximate
08:31PM 48.0280 -77.6779 326° Northwest  Level FlightAware Approximate
08:32PM 48.0898 -77.7398 326° Northwest  Level FlightAware Approximate
08:33PM 48.0533 -77.7828 326° Northwest  Level Estimated
08:34PM 48.0533 -77.7828 165° South  Level Estimated
08:35PM 48.0533 -77.7828 162° South  Level Estimated
08:36PM 48.0533 -77.7828 162° South  Level Estimated
08:37PM 48.0533 -77.7828 162° South  Level Estimated
08:38PM 48.0533 -77.7828 162° South  Level Estimated
08:39PM 48.0533 -77.7828 162° South  Level Estimated